Time;durP1;ratioP1;P1;durP2;ratioP2;P2;SDS_P1;SDS_P2;PMS_P1;PMS_P2;Temp;Humidity;BMP_temperature;BMP_pressure;BME280_temperature;BME280_humidity;BME280_pressure;Samples;Min_cycle;Max_cycle;Signal;HPM_P1;HPM_P2
2022/05/28 00:00:22;;;;;;;2.40;2.20;;;17.50;99.90;;;;;;5082169;28;21328;-89
2022/05/28 00:02:49;;;;;;;5.70;2.40;;;17.50;99.90;;;;;;5082929;28;21178;-88
2022/05/28 00:05:18;;;;;;;2.60;2.30;;;17.30;99.90;;;;;;5085444;28;20647;-88
2022/05/28 00:07:44;;;;;;;4.60;2.40;;;17.20;99.90;;;;;;5085491;28;20620;-89
2022/05/28 00:10:15;;;;;;;3.70;2.80;;;17.10;99.90;;;;;;5085442;28;21213;-88
2022/05/28 00:12:42;;;;;;;6.83;2.50;;;17.10;99.90;;;;;;5088327;28;20628;-88
2022/05/28 00:15:10;;;;;;;3.23;2.37;;;17.10;99.90;;;;;;5087349;28;20624;-88
2022/05/28 00:17:37;;;;;;;6.67;2.90;;;16.90;99.90;;;;;;5085746;28;21195;-90
2022/05/28 00:20:06;;;;;;;4.33;2.57;;;16.80;99.90;;;;;;5086619;28;20664;-90
2022/05/28 00:22:37;;;;;;;5.53;2.20;;;16.80;99.90;;;;;;5086987;28;20632;-89
2022/05/28 00:25:05;;;;;;;4.23;2.73;;;16.60;99.90;;;;;;5083599;28;20618;-89
2022/05/28 00:27:32;;;;;;;4.73;2.70;;;16.60;99.90;;;;;;5084772;28;20620;-89
2022/05/28 00:29:59;;;;;;;3.57;3.00;;;16.60;99.90;;;;;;5086227;28;20683;-89
2022/05/28 00:32:25;;;;;;;3.87;3.30;;;16.60;99.90;;;;;;5084156;28;20643;-89
2022/05/28 00:34:52;;;;;;;3.03;2.73;;;16.60;99.90;;;;;;5085685;28;20636;-89
2022/05/28 00:37:19;;;;;;;2.70;2.40;;;16.50;99.90;;;;;;5084480;28;20991;-89
2022/05/28 00:39:47;;;;;;;1.60;1.50;;;16.50;99.90;;;;;;5082937;28;21425;-90
2022/05/28 00:42:14;;;;;;;3.10;2.10;;;16.60;99.90;;;;;;5085804;28;21789;-90
2022/05/28 00:44:41;;;;;;;3.47;2.47;;;16.70;99.90;;;;;;5083405;28;20628;-90
2022/05/28 00:47:08;;;;;;;3.00;2.23;;;16.70;99.90;;;;;;5084947;28;20750;-90
2022/05/28 00:49:35;;;;;;;6.93;3.07;;;16.60;99.90;;;;;;5083021;28;20644;-90
2022/05/28 00:52:07;;;;;;;6.00;2.80;;;16.50;99.90;;;;;;5087253;28;20755;-89
2022/05/28 00:54:38;;;;;;;5.90;3.60;;;16.50;99.90;;;;;;5085864;28;20627;-89
2022/05/28 00:57:08;;;;;;;4.17;2.73;;;16.40;99.90;;;;;;5082943;28;20619;-89
2022/05/28 00:59:37;;;;;;;3.10;2.70;;;16.50;99.90;;;;;;5081555;28;21209;-89
2022/05/28 01:02:09;;;;;;;3.87;2.13;;;16.50;99.90;;;;;;5086313;28;20693;-89
2022/05/28 01:04:43;;;;;;;3.90;2.10;;;16.40;99.90;;;;;;5085695;28;21407;-89
2022/05/28 01:07:20;;;;;;;3.30;2.70;;;16.40;99.90;;;;;;5080557;28;20686;-89
2022/05/28 01:09:56;;;;;;;2.70;2.13;;;16.40;99.90;;;;;;5084168;28;20648;-88
2022/05/28 01:12:34;;;;;;;3.13;2.70;;;16.30;99.90;;;;;;5082745;28;20635;-88
2022/05/28 01:15:07;;;;;;;4.90;3.30;;;16.40;99.90;;;;;;5081199;28;20620;-87
2022/05/28 01:17:37;;;;;;;4.03;2.60;;;16.40;99.90;;;;;;5083465;28;20735;-89
2022/05/28 01:20:08;;;;;;;3.43;2.10;;;16.30;99.90;;;;;;5084272;28;21120;-88
2022/05/28 01:22:56;;;;;;;6.53;3.40;;;16.30;99.90;;;;;;5085870;28;20628;-88
2022/05/28 01:25:30;;;;;;;3.10;2.80;;;16.20;99.90;;;;;;5084364;28;21022;-89
2022/05/28 01:28:04;;;;;;;2.50;2.30;;;16.30;99.90;;;;;;5083539;28;20611;-88
2022/05/28 01:30:32;;;;;;;8.57;2.50;;;16.20;99.90;;;;;;5079816;28;20651;-88
2022/05/28 01:33:00;;;;;;;3.90;2.27;;;16.10;99.90;;;;;;5087461;28;20624;-88
2022/05/28 01:35:30;;;;;;;3.10;2.53;;;16.20;99.90;;;;;;5079600;28;20627;-87
2022/05/28 01:37:59;;;;;;;3.63;2.70;;;16.20;99.90;;;;;;5083854;28;20639;-87
2022/05/28 01:40:27;;;;;;;10.40;2.50;;;16.20;99.90;;;;;;5083562;28;20648;-87
2022/05/28 01:42:56;;;;;;;4.00;2.07;;;16.20;99.90;;;;;;5084075;28;20654;-86
2022/05/28 01:45:28;;;;;;;2.43;2.00;;;16.10;99.90;;;;;;5080816;28;20640;-87
2022/05/28 01:47:59;;;;;;;2.70;2.30;;;16.10;99.90;;;;;;5082226;28;20652;-87
2022/05/28 01:50:28;;;;;;;5.43;2.43;;;16.10;99.90;;;;;;5080214;28;20659;-87
2022/05/28 01:52:55;;;;;;;3.20;2.20;;;16.10;99.90;;;;;;5084558;28;20624;-87
2022/05/28 01:55:26;;;;;;;4.90;2.40;;;16.10;99.90;;;;;;5087769;28;20635;-88
2022/05/28 01:57:53;;;;;;;2.60;2.13;;;16.10;99.90;;;;;;5090153;28;20957;-88
2022/05/28 02:00:20;;;;;;;8.27;2.87;;;16.20;99.90;;;;;;5101643;28;20711;-88
2022/05/28 02:02:49;;;;;;;11.07;2.53;;;16.10;99.90;;;;;;5094320;28;20632;-87
2022/05/28 02:05:16;;;;;;;4.40;2.30;;;16.10;99.90;;;;;;5088266;28;20639;-88
2022/05/28 02:07:42;;;;;;;5.07;1.70;;;16.00;99.90;;;;;;5086291;28;20678;-88
2022/05/28 02:10:13;;;;;;;5.90;3.10;;;16.10;99.90;;;;;;5088448;28;20731;-88
2022/05/28 02:12:53;;;;;;;3.57;1.97;;;16.10;99.90;;;;;;5083657;28;20628;-88
2022/05/28 02:15:34;;;;;;;3.90;2.07;;;16.00;99.90;;;;;;5081598;28;20666;-88
2022/05/28 02:18:11;;;;;;;3.10;2.23;;;15.90;99.90;;;;;;5082508;28;20616;-88
2022/05/28 02:20:45;;;;;;;2.50;1.80;;;15.90;99.90;;;;;;5087398;28;20655;-88
2022/05/28 02:23:16;;;;;;;5.87;2.30;;;15.90;99.90;;;;;;5086327;28;20584;-88
2022/05/28 02:25:46;;;;;;;6.13;2.60;;;16.00;99.90;;;;;;5082120;28;20700;-87
2022/05/28 02:28:15;;;;;;;5.33;3.00;;;15.90;99.90;;;;;;5085649;28;20624;-88
2022/05/28 02:30:53;;;;;;;3.53;2.37;;;15.80;99.90;;;;;;5084152;28;20640;-88
2022/05/28 02:33:22;;;;;;;4.33;2.50;;;15.80;99.90;;;;;;5089069;28;20616;-88
2022/05/28 02:35:49;;;;;;;4.00;2.10;;;15.70;99.90;;;;;;5084232;28;20624;-88
2022/05/28 02:38:17;;;;;;;4.00;2.23;;;15.70;99.90;;;;;;5087819;28;20643;-88
2022/05/28 02:40:46;;;;;;;4.70;2.37;;;15.60;99.90;;;;;;5081667;28;20993;-87
2022/05/28 02:43:14;;;;;;;5.20;2.50;;;15.70;99.90;;;;;;5079272;28;20636;-87
2022/05/28 02:45:42;;;;;;;3.67;2.40;;;15.70;99.90;;;;;;5086060;28;20632;-87
2022/05/28 02:48:09;;;;;;;4.17;2.30;;;15.50;99.90;;;;;;5085185;28;20659;-88
2022/05/28 02:50:37;;;;;;;4.90;2.77;;;15.50;99.90;;;;;;5082680;28;20675;-87
2022/05/28 02:53:04;;;;;;;2.67;2.13;;;15.50;99.90;;;;;;5087302;28;20642;-87
2022/05/28 02:55:30;;;;;;;8.50;2.60;;;15.60;99.90;;;;;;5085999;28;20592;-87
2022/05/28 02:57:57;;;;;;;6.73;2.77;;;15.50;99.90;;;;;;5080967;28;20709;-87
2022/05/28 03:00:24;;;;;;;5.13;2.50;;;15.50;99.90;;;;;;5085723;28;20644;-87
2022/05/28 03:02:52;;;;;;;3.37;2.33;;;15.50;99.90;;;;;;5084056;28;20632;-87
2022/05/28 03:05:21;;;;;;;6.37;2.27;;;15.50;99.90;;;;;;5085456;28;20627;-87
2022/05/28 03:07:49;;;;;;;3.97;1.90;;;15.50;99.90;;;;;;5080776;28;20660;-87
2022/05/28 03:10:16;;;;;;;6.13;2.30;;;15.50;99.90;;;;;;5087107;28;20658;-87
2022/05/28 03:12:43;;;;;;;7.73;2.50;;;15.40;99.90;;;;;;5085487;28;20620;-87
2022/05/28 03:15:12;;;;;;;2.27;1.40;;;15.40;99.90;;;;;;5088245;28;20634;-87
2022/05/28 03:17:39;;;;;;;5.87;2.50;;;15.50;99.90;;;;;;5082363;28;20629;-87
2022/05/28 03:20:07;;;;;;;3.53;1.73;;;15.50;99.90;;;;;;5087433;28;20640;-86
2022/05/28 03:22:34;;;;;;;4.33;1.97;;;15.40;99.90;;;;;;5084473;28;20629;-87
2022/05/28 03:25:02;;;;;;;5.37;1.90;;;15.40;99.90;;;;;;5085783;28;20631;-87
2022/05/28 03:27:30;;;;;;;8.23;2.70;;;15.30;99.90;;;;;;5084688;28;20658;-86
2022/05/28 03:29:56;;;;;;;2.40;1.27;;;15.30;99.90;;;;;;5086577;28;21014;-86
2022/05/28 03:32:23;;;;;;;4.30;1.60;;;15.30;99.90;;;;;;5084356;28;20627;-86
2022/05/28 03:34:50;;;;;;;5.90;2.33;;;15.20;99.90;;;;;;5085915;28;20632;-87
2022/05/28 03:37:17;;;;;;;4.83;2.00;;;15.20;99.90;;;;;;5084257;28;20620;-86
2022/05/28 03:39:44;;;;;;;5.30;2.17;;;15.20;99.90;;;;;;5080539;28;20640;-87
2022/05/28 03:42:12;;;;;;;4.63;1.80;;;15.10;99.90;;;;;;5083724;28;20616;-87
2022/05/28 03:44:39;;;;;;;6.20;2.10;;;15.20;99.90;;;;;;5085363;28;20628;-87
2022/05/28 03:47:06;;;;;;;4.73;2.00;;;15.10;99.90;;;;;;5083912;28;20759;-86
2022/05/28 03:49:35;;;;;;;4.10;2.83;;;15.00;99.90;;;;;;5082713;28;20647;-87
2022/05/28 03:52:02;;;;;;;5.53;2.50;;;15.00;99.90;;;;;;5082930;28;21078;-87
2022/05/28 03:54:29;;;;;;;3.67;2.13;;;14.90;99.90;;;;;;5086146;28;20627;-87
2022/05/28 03:56:59;;;;;;;3.93;1.83;;;14.90;99.90;;;;;;5085116;28;20644;-87
2022/05/28 03:59:28;;;;;;;5.20;2.70;;;14.90;99.90;;;;;;5083587;28;20649;-87
2022/05/28 04:01:54;;;;;;;4.53;1.90;;;14.80;99.90;;;;;;5085386;28;21256;-87
2022/05/28 04:04:21;;;;;;;6.80;2.40;;;14.80;99.90;;;;;;5082928;28;21046;-86
2022/05/28 04:06:48;;;;;;;3.73;2.23;;;14.90;99.90;;;;;;5079938;28;20680;-87
2022/05/28 04:09:15;;;;;;;3.80;1.80;;;14.80;99.90;;;;;;5081564;28;20639;-87
2022/05/28 04:11:42;;;;;;;4.80;1.73;;;14.80;99.90;;;;;;5079473;28;20648;-87
2022/05/28 04:14:09;;;;;;;3.00;1.90;;;14.80;99.90;;;;;;5087722;28;20634;-87
2022/05/28 04:16:37;;;;;;;5.50;3.20;;;14.80;99.90;;;;;;5086425;28;20628;-87
2022/05/28 04:19:04;;;;;;;3.20;2.40;;;14.80;99.90;;;;;;5084177;28;21578;-86
2022/05/28 04:21:31;;;;;;;5.73;2.23;;;14.80;99.90;;;;;;5084052;28;20652;-86
2022/05/28 04:23:58;;;;;;;3.80;2.10;;;14.70;99.90;;;;;;5084868;28;21541;-87
2022/05/28 04:26:25;;;;;;;3.60;1.90;;;14.80;99.90;;;;;;5083147;28;20636;-87
2022/05/28 04:28:52;;;;;;;6.80;2.07;;;14.80;99.90;;;;;;5083151;28;20657;-87
2022/05/28 04:31:19;;;;;;;3.27;1.77;;;14.80;99.90;;;;;;5084219;28;21066;-86
2022/05/28 04:33:47;;;;;;;6.50;2.30;;;14.80;99.90;;;;;;5081603;28;20631;-86
2022/05/28 04:36:13;;;;;;;5.50;2.17;;;15.10;99.90;;;;;;5085003;28;20628;-87
2022/05/28 04:38:41;;;;;;;5.67;2.20;;;15.10;99.90;;;;;;5080405;28;20751;-87
2022/05/28 04:41:08;;;;;;;4.10;1.80;;;15.00;99.90;;;;;;5081956;28;21225;-86
2022/05/28 04:43:34;;;;;;;7.23;2.27;;;15.00;99.90;;;;;;5082305;28;20621;-86
2022/05/28 04:46:01;;;;;;;5.50;2.57;;;14.90;99.90;;;;;;5081171;28;20624;-87
2022/05/28 04:48:28;;;;;;;8.83;2.30;;;14.80;99.90;;;;;;5081515;28;20674;-87
2022/05/28 04:50:56;;;;;;;6.60;1.90;;;14.80;99.90;;;;;;5082634;28;21000;-86
2022/05/28 04:53:23;;;;;;;3.80;1.63;;;14.80;99.90;;;;;;5081933;28;20624;-86
2022/05/28 04:55:50;;;;;;;3.97;1.77;;;15.10;99.90;;;;;;5083524;28;20625;-87
2022/05/28 04:58:17;;;;;;;3.30;1.73;;;15.00;99.90;;;;;;5083272;28;20620;-87
2022/05/28 05:00:45;;;;;;;4.20;1.57;;;15.10;99.90;;;;;;5081935;28;20726;-87
2022/05/28 05:03:12;;;;;;;5.63;1.70;;;15.10;99.90;;;;;;5085651;28;20628;-87
2022/05/28 05:05:39;;;;;;;3.03;1.60;;;15.10;99.90;;;;;;5083624;28;20620;-86
2022/05/28 05:08:37;;;;;;;5.57;1.70;;;15.20;99.90;;;;;;5111831;27;20771;-86
2022/05/28 05:11:04;;;;;;;7.03;2.90;;;15.30;99.90;;;;;;5099146;28;20649;-87
2022/05/28 05:13:31;;;;;;;3.50;1.60;;;15.40;99.90;;;;;;5095929;28;21166;-85
2022/05/28 05:16:00;;;;;;;8.43;1.90;;;15.30;99.90;;;;;;5098584;28;20623;-87
2022/05/28 05:18:27;;;;;;;5.73;2.33;;;15.40;99.90;;;;;;5092199;28;20647;-87
2022/05/28 05:20:54;;;;;;;6.53;2.30;;;15.30;99.90;;;;;;5096103;28;20616;-87
2022/05/28 05:23:21;;;;;;;2.87;1.40;;;15.30;99.90;;;;;;5099739;28;20615;-87
2022/05/28 05:25:49;;;;;;;5.63;1.80;;;15.40;99.90;;;;;;5092457;28;20628;-88
2022/05/28 05:28:16;;;;;;;2.87;1.60;;;15.40;99.90;;;;;;5096359;28;21008;-87
2022/05/28 05:30:43;;;;;;;8.67;2.50;;;15.50;99.90;;;;;;5098950;28;21232;-87
2022/05/28 05:33:09;;;;;;;6.00;1.90;;;15.70;99.90;;;;;;5092523;28;20620;-87
2022/05/28 05:35:37;;;;;;;4.27;2.30;;;15.60;99.90;;;;;;5095731;28;21055;-86
2022/05/28 05:38:06;;;;;;;6.27;2.57;;;15.70;99.90;;;;;;5093460;28;20660;-87
2022/05/28 05:40:34;;;;;;;2.20;1.50;;;15.60;99.90;;;;;;5095805;28;20612;-87
2022/05/28 05:43:02;;;;;;;5.57;2.20;;;15.70;99.90;;;;;;5096804;28;20712;-87
2022/05/28 05:45:29;;;;;;;2.67;1.57;;;15.70;99.90;;;;;;5097204;28;21551;-87
2022/05/28 05:47:55;;;;;;;5.40;1.90;;;15.90;99.90;;;;;;5095797;28;20679;-87
2022/05/28 05:50:22;;;;;;;10.00;3.27;;;15.90;99.90;;;;;;5096879;28;20643;-87
2022/05/28 05:52:49;;;;;;;3.77;1.73;;;16.00;99.90;;;;;;5087401;28;20584;-87
2022/05/28 05:55:16;;;;;;;5.00;1.97;;;15.90;99.90;;;;;;5097210;28;20635;-86
2022/05/28 05:57:43;;;;;;;6.93;1.70;;;16.00;99.90;;;;;;5094305;28;20995;-87
2022/05/28 06:00:12;;;;;;;7.00;2.10;;;16.20;99.90;;;;;;5087945;28;20638;-87
2022/05/28 06:02:38;;;;;;;8.90;2.30;;;16.20;99.90;;;;;;5095176;28;20665;-87
2022/05/28 06:05:06;;;;;;;2.70;1.67;;;16.30;99.90;;;;;;5096118;28;20631;-87
2022/05/28 06:07:33;;;;;;;7.37;3.20;;;16.00;99.90;;;;;;5086754;28;20713;-88
2022/05/28 06:10:00;;;;;;;6.23;2.20;;;16.10;99.90;;;;;;5087916;28;21010;-87
2022/05/28 06:12:27;;;;;;;6.20;1.40;;;16.20;99.90;;;;;;5095686;28;20623;-88
2022/05/28 06:14:54;;;;;;;5.43;1.30;;;16.30;99.90;;;;;;5098597;28;21163;-87
2022/05/28 06:17:22;;;;;;;9.53;2.00;;;16.30;99.90;;;;;;5097690;28;20692;-87
2022/05/28 06:19:49;;;;;;;3.00;1.63;;;16.40;99.90;;;;;;5082122;28;21167;-88
2022/05/28 06:22:16;;;;;;;6.67;2.07;;;16.50;99.90;;;;;;5082103;28;20643;-88
2022/05/28 06:24:43;;;;;;;3.43;1.73;;;16.60;99.90;;;;;;5082540;28;21416;-88
2022/05/28 06:27:10;;;;;;;5.53;2.03;;;16.70;99.90;;;;;;5078687;28;20679;-87
2022/05/28 06:29:36;;;;;;;5.93;1.67;;;16.90;99.90;;;;;;5080989;28;20640;-88
2022/05/28 06:32:03;;;;;;;5.57;2.43;;;16.90;99.90;;;;;;5080376;28;20635;-88
2022/05/28 06:34:31;;;;;;;5.47;2.57;;;16.70;96.90;;;;;;5079662;28;20619;-87
2022/05/28 06:36:58;;;;;;;7.00;2.90;;;16.70;97.60;;;;;;5079793;28;20644;-87
2022/05/28 06:39:25;;;;;;;11.60;2.20;;;16.80;99.90;;;;;;5082569;28;20628;-88
2022/05/28 06:41:53;;;;;;;5.43;2.77;;;16.80;99.90;;;;;;5076898;28;20644;-87
2022/05/28 06:44:19;;;;;;;3.90;2.07;;;16.70;95.70;;;;;;5086804;28;20627;-88
2022/05/28 06:46:46;;;;;;;5.50;2.13;;;16.50;94.90;;;;;;5082871;28;20649;-87
2022/05/28 06:49:13;;;;;;;3.00;1.80;;;16.30;96.80;;;;;;5061877;28;20648;-88
2022/05/28 06:51:41;;;;;;;6.80;1.80;;;16.30;97.30;;;;;;5080362;28;20702;-88
2022/05/28 06:54:08;;;;;;;8.77;1.83;;;16.20;96.40;;;;;;5078414;28;20639;-88
2022/05/28 06:56:35;;;;;;;6.30;1.97;;;16.00;94.00;;;;;;5082590;28;20648;-89
2022/05/28 06:59:02;;;;;;;5.00;1.43;;;15.90;93.20;;;;;;5083246;28;20653;-89
2022/05/28 07:01:29;;;;;;;4.90;2.00;;;15.60;96.50;;;;;;5079263;28;20616;-87
2022/05/28 07:03:55;;;;;;;5.20;2.00;;;15.60;95.90;;;;;;5083840;28;20624;-89
2022/05/28 07:06:22;;;;;;;4.33;1.57;;;15.50;92.90;;;;;;5077102;28;20640;-90
2022/05/28 07:08:50;;;;;;;6.60;1.73;;;15.50;99.90;;;;;;5081012;28;20626;-89
2022/05/28 07:11:17;;;;;;;3.57;1.60;;;15.70;98.00;;;;;;5083139;28;20724;-89
2022/05/28 07:13:44;;;;;;;3.93;1.70;;;15.80;99.90;;;;;;5077183;28;20629;-89
2022/05/28 07:16:11;;;;;;;5.27;1.87;;;16.10;94.70;;;;;;5080782;28;20625;-89
2022/05/28 07:18:39;;;;;;;3.83;1.70;;;16.50;99.90;;;;;;5081074;28;20642;-88
2022/05/28 07:21:07;;;;;;;6.00;2.10;;;16.70;99.80;;;;;;5083465;28;20620;-88
2022/05/28 07:23:34;;;;;;;2.53;1.20;;;16.60;94.00;;;;;;5074218;28;20719;-89
2022/05/28 07:26:06;;;;;;;6.97;1.87;;;16.70;99.90;;;;;;5058586;28;21008;-88
2022/05/28 07:28:34;;;;;;;2.80;1.70;;;16.70;94.00;;;;;;5076369;28;20671;-87
2022/05/28 07:31:03;;;;;;;2.90;1.10;;;16.70;99.90;;;;;;5067970;28;20625;-88
2022/05/28 07:33:31;;;;;;;3.27;1.20;;;16.90;99.90;;;;;;5082148;28;20628;-88
2022/05/28 07:36:00;;;;;;;2.47;1.20;;;16.90;96.40;;;;;;5073351;28;21202;-88
2022/05/28 07:38:28;;;;;;;4.90;1.90;;;16.90;99.90;;;;;;5069550;28;20756;-88
2022/05/28 07:40:56;;;;;;;2.80;1.43;;;17.00;97.20;;;;;;5082408;28;20624;-88
2022/05/28 07:43:24;;;;;;;4.60;1.50;;;17.10;99.90;;;;;;5083273;28;20776;-88
2022/05/28 07:45:51;;;;;;;3.80;1.40;;;17.30;93.50;;;;;;5079535;28;20612;-89
2022/05/28 07:48:18;;;;;;;6.23;2.03;;;17.00;91.80;;;;;;5080563;28;20729;-89
2022/05/28 07:50:45;;;;;;;2.63;1.40;;;16.50;90.10;;;;;;5077217;28;20628;-88
2022/05/28 07:53:13;;;;;;;4.10;1.87;;;16.40;93.70;;;;;;5080720;28;20627;-89
2022/05/28 07:55:40;;;;;;;4.40;2.00;;;16.40;93.70;;;;;;5080838;28;20655;-88
2022/05/28 07:58:08;;;;;;;4.80;1.77;;;16.30;91.60;;;;;;5077178;28;20656;-88
2022/05/28 08:00:45;;;;;;;4.20;1.83;;;16.40;96.10;;;;;;5076758;28;20636;-89
2022/05/28 08:03:12;;;;;;;3.10;1.67;;;16.70;93.10;;;;;;5081025;28;20631;-89
2022/05/28 08:05:42;;;;;;;3.47;1.13;;;16.70;94.60;;;;;;5083750;28;21078;-89
2022/05/28 08:08:09;;;;;;;3.13;1.00;;;16.60;90.30;;;;;;5077937;28;20687;-89
2022/05/28 08:10:37;;;;;;;2.00;1.30;;;16.60;97.20;;;;;;5077612;28;21340;-89
2022/05/28 08:13:05;;;;;;;2.20;1.30;;;16.90;98.70;;;;;;5080915;28;20730;-90
2022/05/28 08:15:33;;;;;;;4.13;1.40;;;17.10;94.00;;;;;;5078464;28;20628;-89
2022/05/28 08:18:02;;;;;;;5.63;1.90;;;17.40;98.50;;;;;;5081728;28;20648;-89
2022/05/28 08:23:12;;;;;;;3.20;1.80;;;17.60;89.10;;;;;;5077150;28;20637;-89
2022/05/28 08:25:40;;;;;;;7.20;1.90;;;17.60;91.40;;;;;;5077005;28;20620;-89
2022/05/28 08:28:07;;;;;;;2.40;0.90;;;17.70;90.90;;;;;;5082140;28;20671;-89
2022/05/28 08:30:34;;;;;;;1.90;0.90;;;17.60;85.40;;;;;;5074576;28;21163;-89
2022/05/28 08:33:02;;;;;;;4.17;1.30;;;17.40;84.80;;;;;;5080317;28;20716;-89
2022/05/28 08:35:29;;;;;;;5.13;1.20;;;17.20;92.80;;;;;;5080958;28;20632;-90
2022/05/28 08:37:56;;;;;;;2.73;0.97;;;17.50;95.70;;;;;;5077792;28;20645;-89
2022/05/28 08:40:24;;;;;;;4.30;1.13;;;17.80;98.00;;;;;;5077697;28;20658;-89
2022/05/28 08:42:51;;;;;;;3.30;1.30;;;18.00;92.00;;;;;;5075202;28;21003;-89
2022/05/28 08:45:19;;;;;;;4.10;1.13;;;17.90;85.80;;;;;;5081079;28;20628;-89
2022/05/28 08:47:48;;;;;;;5.40;1.67;;;17.80;88.10;;;;;;5080220;28;20665;-89
2022/05/28 08:50:17;;;;;;;1.63;1.10;;;17.80;88.80;;;;;;5080294;28;20635;-90
2022/05/28 08:52:48;;;;;;;2.77;1.87;;;18.00;91.00;;;;;;5077250;28;20629;-89
2022/05/28 08:55:21;;;;;;;3.67;1.00;;;18.20;96.10;;;;;;5079865;28;20635;-89
2022/05/28 08:57:57;;;;;;;1.97;1.63;;;18.40;96.20;;;;;;5080446;28;20659;-90
2022/05/28 09:00:32;;;;;;;3.73;1.60;;;18.60;96.30;;;;;;5078919;28;20633;-89
2022/05/28 09:03:06;;;;;;;4.27;1.80;;;18.60;86.30;;;;;;5075230;28;20627;-90
2022/05/28 09:05:38;;;;;;;2.73;1.30;;;18.40;85.10;;;;;;5075896;28;20632;-90
2022/05/28 09:08:07;;;;;;;1.23;0.70;;;18.10;86.00;;;;;;5075248;28;20691;-89
2022/05/28 09:10:41;;;;;;;2.13;1.03;;;17.90;94.50;;;;;;5081511;28;21506;-89
2022/05/28 09:13:19;;;;;;;2.10;1.00;;;18.10;96.60;;;;;;5074617;28;20717;-90
2022/05/28 09:15:46;;;;;;;2.27;1.03;;;18.30;94.20;;;;;;5084856;28;20628;-89
2022/05/28 09:18:13;;;;;;;3.10;1.23;;;18.20;85.70;;;;;;5085625;28;20640;-90
2022/05/28 09:20:44;;;;;;;4.07;1.60;;;18.20;85.00;;;;;;5072914;28;20660;-89
2022/05/28 09:23:11;;;;;;;8.03;1.60;;;18.40;93.40;;;;;;5076727;28;20689;-89
2022/05/28 09:25:43;;;;;;;2.83;1.20;;;18.60;89.00;;;;;;5084048;28;20609;-90
2022/05/28 09:28:24;;;;;;;1.60;1.13;;;18.60;87.10;;;;;;5084866;28;21124;-90
2022/05/28 09:31:02;;;;;;;1.53;1.10;;;18.70;92.90;;;;;;5077970;28;20624;-89
2022/05/28 09:34:03;;;;;;;2.90;1.50;;;18.90;87.40;;;;;;5068791;28;20983;-89
2022/05/28 09:36:40;;;;;;;4.17;1.10;;;18.90;90.00;;;;;;5081346;28;20655;-90
2022/05/28 09:39:25;;;;;;;2.03;1.03;;;19.10;89.00;;;;;;5075093;28;20631;-90
2022/05/28 09:42:00;;;;;;;3.50;1.30;;;19.20;90.10;;;;;;5075281;28;21229;-90
2022/05/28 09:44:38;;;;;;;4.57;1.23;;;19.20;85.10;;;;;;5082970;28;20631;-90
2022/05/28 09:47:09;;;;;;;6.80;1.00;;;19.40;90.00;;;;;;5077771;28;20656;-89
2022/05/28 09:49:47;;;;;;;4.47;1.20;;;19.30;81.50;;;;;;5075713;28;20681;-90
2022/05/28 09:52:23;;;;;;;5.13;1.50;;;19.10;82.00;;;;;;5080484;28;20732;-89
2022/05/28 09:54:49;;;;;;;3.33;1.30;;;18.90;81.10;;;;;;5085576;28;20636;-89
2022/05/28 09:57:23;;;;;;;1.10;0.80;;;18.80;81.40;;;;;;5085078;28;20648;-89
2022/05/28 09:59:55;;;;;;;3.77;1.17;;;19.00;93.60;;;;;;5081830;28;20198;-89
2022/05/28 10:02:25;;;;;;;2.90;1.00;;;19.30;92.40;;;;;;5082654;28;20696;-89
2022/05/28 10:04:55;;;;;;;1.83;1.00;;;19.40;91.00;;;;;;5078972;28;20605;-89
2022/05/28 10:07:31;;;;;;;6.93;1.70;;;19.70;92.20;;;;;;5087470;28;21433;-90
2022/05/28 10:09:58;;;;;;;2.50;0.93;;;20.00;92.40;;;;;;5083398;28;20695;-90
2022/05/28 10:12:28;;;;;;;3.70;1.30;;;20.00;81.30;;;;;;5085518;28;20726;-89
2022/05/28 10:15:04;;;;;;;2.40;0.70;;;19.70;79.60;;;;;;5080207;28;21242;-89
2022/05/28 10:17:32;;;;;;;3.03;1.10;;;19.80;91.90;;;;;;5085195;28;20678;-89
2022/05/28 10:20:02;;;;;;;1.33;0.90;;;19.80;91.60;;;;;;5080382;28;20629;-89
2022/05/28 10:22:31;;;;;;;2.03;0.90;;;19.90;88.30;;;;;;5075804;28;21214;-89
2022/05/28 10:25:01;;;;;;;3.50;1.17;;;20.20;91.30;;;;;;5080802;28;20975;-89
2022/05/28 10:27:34;;;;;;;1.50;0.93;;;20.50;92.50;;;;;;5085325;28;20655;-91
2022/05/28 10:30:05;;;;;;;2.67;1.07;;;20.70;90.90;;;;;;5074151;28;20729;-92
2022/05/28 10:32:35;;;;;;;2.30;1.27;;;21.00;92.00;;;;;;5079318;28;20613;-90
2022/05/28 10:35:13;;;;;;;2.80;1.17;;;21.10;87.50;;;;;;5069702;28;20819;-88
2022/05/28 10:37:41;;;;;;;3.47;1.30;;;20.90;76.00;;;;;;5080668;28;20640;-91
2022/05/28 10:40:17;;;;;;;5.10;1.13;;;20.60;80.60;;;;;;5080419;28;20661;-89
2022/05/28 10:42:44;;;;;;;1.30;0.90;;;20.60;81.20;;;;;;5078351;28;20635;-90
2022/05/28 10:45:12;;;;;;;2.70;1.20;;;20.70;91.30;;;;;;5081830;28;20624;-90
2022/05/28 10:48:00;;;;;;;3.93;1.63;;;20.80;89.70;;;;;;5078481;28;20659;-90
2022/05/28 10:50:37;;;;;;;3.77;1.30;;;20.80;84.30;;;;;;5084068;28;20592;-89
2022/05/28 10:53:19;;;;;;;3.37;1.70;;;20.60;83.80;;;;;;5072130;28;20646;-89
2022/05/28 10:55:59;;;;;;;3.70;1.37;;;20.40;81.10;;;;;;5079564;28;20620;-89
2022/05/28 10:58:42;;;;;;;1.60;1.03;;;20.30;81.80;;;;;;5077993;28;20679;-89
2022/05/28 11:01:26;;;;;;;4.43;1.33;;;19.90;78.70;;;;;;5074861;28;20990;-89
2022/05/28 11:04:22;;;;;;;3.60;1.43;;;19.90;78.10;;;;;;5077668;28;20599;-90
2022/05/28 11:07:18;;;;;;;2.53;1.10;;;19.90;77.70;;;;;;5073263;28;21059;-90
2022/05/28 11:10:01;;;;;;;1.97;1.17;;;19.60;73.60;;;;;;5074675;28;20628;-89
2022/05/28 11:12:58;;;;;;;2.43;1.40;;;19.60;79.50;;;;;;5070921;28;20640;-89
2022/05/28 11:15:39;;;;;;;3.53;1.10;;;19.80;78.00;;;;;;5072315;28;21284;-90
2022/05/28 11:18:43;;;;;;;2.43;1.00;;;19.90;78.30;;;;;;5073892;28;20650;-90
2022/05/28 11:21:25;;;;;;;3.30;0.90;;;20.30;85.40;;;;;;5075207;28;20625;-89
2022/05/28 11:24:09;;;;;;;1.00;0.70;;;20.70;76.00;;;;;;5071222;28;20702;-89
2022/05/28 11:26:44;;;;;;;3.43;1.37;;;21.20;84.30;;;;;;5074490;28;21251;-90
2022/05/28 11:29:37;;;;;;;2.80;1.00;;;21.50;73.00;;;;;;5075467;28;21199;-90
2022/05/28 11:32:10;;;;;;;2.43;1.07;;;21.40;71.50;;;;;;5070348;28;20633;-90
2022/05/28 11:34:41;;;;;;;3.13;1.23;;;21.20;72.30;;;;;;5080919;28;21670;-90
2022/05/28 11:37:13;;;;;;;3.00;1.10;;;21.20;66.10;;;;;;5073187;28;21270;-90
2022/05/28 11:39:46;;;;;;;3.60;1.33;;;21.30;72.10;;;;;;5071866;28;21217;-90
2022/05/28 11:42:29;;;;;;;1.80;0.90;;;21.30;66.20;;;;;;5077837;28;20712;-90
2022/05/28 11:44:57;;;;;;;5.40;1.60;;;21.30;67.20;;;;;;5069675;28;20763;-91
2022/05/28 11:47:32;;;;;;;5.30;1.43;;;21.60;69.00;;;;;;5080085;28;20651;-90
2022/05/28 11:52:59;;;;;;;2.80;1.10;;;21.40;70.00;;;;;;5022352;28;20694;-90
2022/05/28 11:55:30;;;;;;;1.70;0.93;;;21.60;70.90;;;;;;5072489;28;20658;-90
2022/05/28 11:58:02;;;;;;;3.43;0.97;;;21.60;65.00;;;;;;5072441;28;20667;-90
2022/05/28 12:00:34;;;;;;;3.63;1.30;;;21.60;64.20;;;;;;5082354;28;20652;-90
2022/05/28 12:03:10;;;;;;;2.50;1.10;;;21.50;73.50;;;;;;5080595;28;20616;-90
2022/05/28 12:05:42;;;;;;;4.23;1.23;;;21.70;61.50;;;;;;5074377;28;20733;-90
2022/05/28 12:08:20;;;;;;;1.57;1.23;;;21.60;61.90;;;;;;5077375;28;21111;-90
2022/05/28 12:10:51;;;;;;;3.07;1.10;;;21.70;62.90;;;;;;5067775;28;21182;-90
2022/05/28 12:13:33;;;;;;;5.13;1.70;;;22.10;67.70;;;;;;5070838;28;20621;-89
2022/05/28 12:16:12;;;;;;;1.80;1.40;;;22.70;74.30;;;;;;5073901;28;20597;-90
2022/05/28 12:18:42;;;;;;;1.93;1.33;;;23.00;65.90;;;;;;5080883;28;20655;-91
2022/05/28 12:21:09;;;;;;;3.37;0.90;;;23.10;67.20;;;;;;5082934;28;20665;-91
2022/05/28 12:23:39;;;;;;;72.37;11.40;;;23.10;66.80;;;;;;5080662;28;20646;-90
2022/05/28 12:26:40;;;;;;;2.80;1.30;;;23.30;70.20;;;;;;5071120;28;20736;-91
2022/05/28 12:29:08;;;;;;;1.60;1.03;;;23.50;66.10;;;;;;5071330;28;20597;-90
2022/05/28 12:31:34;;;;;;;2.90;1.30;;;23.30;64.20;;;;;;5069969;28;20645;-91
2022/05/28 12:34:03;;;;;;;9.80;2.27;;;23.40;66.10;;;;;;5073255;28;20628;-91
2022/05/28 12:36:41;;;;;;;3.57;1.20;;;23.60;71.80;;;;;;5076041;28;20652;-90
2022/05/28 12:39:31;;;;;;;1.60;1.00;;;23.80;63.20;;;;;;5068164;28;20659;-91
2022/05/28 12:42:00;;;;;;;2.43;1.27;;;23.50;65.00;;;;;;5065702;28;20621;-89
2022/05/28 12:44:28;;;;;;;4.20;1.40;;;23.40;66.60;;;;;;5075354;28;20670;-91
2022/05/28 12:46:57;;;;;;;3.10;1.07;;;23.40;64.10;;;;;;5069386;28;20641;-90
2022/05/28 12:49:27;;;;;;;2.60;1.13;;;23.50;71.40;;;;;;5072719;28;21154;-89
2022/05/28 12:52:04;;;;;;;2.47;1.00;;;23.60;70.00;;;;;;5073274;28;20617;-91
2022/05/28 12:54:33;;;;;;;3.17;1.40;;;24.00;74.20;;;;;;5075399;28;21135;-88
2022/05/28 12:57:09;;;;;;;1.33;1.00;;;24.30;71.70;;;;;;5071736;28;20663;-89
2022/05/28 12:59:40;;;;;;;3.20;1.30;;;24.20;66.40;;;;;;5067775;28;21294;-89
2022/05/28 13:02:25;;;;;;;3.23;1.20;;;24.20;62.40;;;;;;5071522;28;21067;-90
2022/05/28 13:04:56;;;;;;;3.33;1.30;;;23.80;58.80;;;;;;5073001;28;20907;-89
2022/05/28 13:07:30;;;;;;;1.53;0.80;;;23.60;58.90;;;;;;5078509;28;21092;-90